UAE5QL OMDB-FSIA
Flight info
| Callsign | UAE5QL |
|---|---|
| Flight time | 3h 48m |
| Altitude | 34000 |
| Route | ANVIX R401 GIDIS G783 UKRAG L710 DEDSO R401 SUHIL UM314 IMTIP DCT EPNOR T144 ROUTY ROUTY1D |
| Aircraft | B77W/H-SDE1E2E3FGHIJ2J3J4J5M1RWXY/LB1D1 |
Departure
| Time | 2026-04-21 23:15 |
|---|---|
| Airport | Dubai International Airport (OMDB) |
Arrival
| Time | 2026-04-22 03:03 |
|---|---|
| Airport | Seychelles International Airport (FSIA) |
| Time | Latitude | Longitude | Altitude | Speed | Heading |
|---|---|---|---|---|---|
| 2026-04-21 22:30 | 25.25040 | 55.35635 | 45 ft | 0 kts | 32° |
| 2026-04-21 23:00 | 25.25040 | 55.35634 | 45 ft | 0 kts | 32° |
| 2026-04-21 23:00 | 25.25033 | 55.35630 | 45 ft | 1 kts | 32° |
| 2026-04-21 23:00 | 25.25020 | 55.35622 | 45 ft | 2 kts | 20° |
| 2026-04-21 23:01 | 25.25005 | 55.35617 | 45 ft | 2 kts | 7° |
| 2026-04-21 23:01 | 25.24990 | 55.35617 | 45 ft | 2 kts | 356° |
| 2026-04-21 23:01 | 25.24976 | 55.35619 | 45 ft | 2 kts | 345° |
| 2026-04-21 23:01 | 25.24962 | 55.35624 | 45 ft | 2 kts | 333° |
| 2026-04-21 23:02 | 25.24949 | 55.35633 | 45 ft | 2 kts | 322° |
| 2026-04-21 23:02 | 25.24938 | 55.35644 | 45 ft | 2 kts | 311° |
| 2026-04-21 23:02 | 25.24931 | 55.35654 | 45 ft | 1 kts | 302° |
| 2026-04-21 23:02 | 25.24930 | 55.35656 | 45 ft | 0 kts | 301° |
| 2026-04-21 23:04 | 25.24932 | 55.35652 | 45 ft | 2 kts | 301° |
| 2026-04-21 23:04 | 25.24954 | 55.35614 | 44 ft | 8 kts | 302° |
| 2026-04-21 23:05 | 25.24993 | 55.35542 | 44 ft | 12 kts | 302° |
| 2026-04-21 23:05 | 25.25036 | 55.35466 | 45 ft | 10 kts | 302° |
| 2026-04-21 23:05 | 25.25074 | 55.35399 | 44 ft | 9 kts | 302° |
| 2026-04-21 23:05 | 25.25109 | 55.35339 | 44 ft | 9 kts | 304° |
| 2026-04-21 23:06 | 25.25152 | 55.35273 | 44 ft | 11 kts | 306° |
| 2026-04-21 23:06 | 25.25202 | 55.35194 | 44 ft | 13 kts | 303° |
| 2026-04-21 23:06 | 25.25256 | 55.35102 | 44 ft | 15 kts | 301° |
| 2026-04-21 23:06 | 25.25313 | 55.34999 | 44 ft | 15 kts | 301° |
| 2026-04-21 23:07 | 25.25376 | 55.34913 | 44 ft | 13 kts | 323° |
| 2026-04-21 23:07 | 25.25459 | 55.34903 | 44 ft | 12 kts | 22° |
| 2026-04-21 23:07 | 25.25530 | 55.34947 | 44 ft | 12 kts | 30° |
| 2026-04-21 23:07 | 25.25610 | 55.35000 | 44 ft | 14 kts | 31° |
| 2026-04-21 23:08 | 25.25694 | 55.35057 | 44 ft | 13 kts | 31° |
| 2026-04-21 23:08 | 25.25733 | 55.35132 | 44 ft | 11 kts | 102° |
| 2026-04-21 23:08 | 25.25745 | 55.35206 | 44 ft | 9 kts | 40° |
| 2026-04-21 23:08 | 25.25810 | 55.35250 | 44 ft | 13 kts | 30° |
| 2026-04-21 23:09 | 25.25903 | 55.35311 | 44 ft | 15 kts | 31° |
| 2026-04-21 23:09 | 25.25977 | 55.35383 | 44 ft | 13 kts | 61° |
| 2026-04-21 23:09 | 25.25992 | 55.35492 | 44 ft | 16 kts | 98° |
| 2026-04-21 23:09 | 25.25942 | 55.35613 | 44 ft | 18 kts | 121° |
| 2026-04-21 23:10 | 25.25872 | 55.35741 | 44 ft | 20 kts | 120° |
| 2026-04-21 23:10 | 25.25792 | 55.35885 | 45 ft | 23 kts | 122° |
| 2026-04-21 23:10 | 25.25702 | 55.36045 | 45 ft | 25 kts | 121° |
| 2026-04-21 23:10 | 25.25607 | 55.36217 | 45 ft | 25 kts | 121° |
| 2026-04-21 23:11 | 25.25519 | 55.36375 | 45 ft | 22 kts | 121° |
| 2026-04-21 23:11 | 25.25440 | 55.36516 | 45 ft | 20 kts | 123° |
| 2026-04-21 23:11 | 25.25370 | 55.36641 | 45 ft | 17 kts | 120° |
| 2026-04-21 23:11 | 25.25309 | 55.36752 | 45 ft | 16 kts | 121° |
| 2026-04-21 23:12 | 25.25247 | 55.36864 | 45 ft | 17 kts | 121° |
| 2026-04-21 23:12 | 25.25180 | 55.36985 | 45 ft | 18 kts | 122° |
| 2026-04-21 23:12 | 25.25112 | 55.37107 | 45 ft | 19 kts | 121° |
| 2026-04-21 23:12 | 25.25037 | 55.37243 | 45 ft | 21 kts | 121° |
| 2026-04-21 23:13 | 25.24953 | 55.37396 | 45 ft | 24 kts | 121° |
| 2026-04-21 23:13 | 25.24857 | 55.37568 | 45 ft | 27 kts | 121° |
| 2026-04-21 23:13 | 25.24759 | 55.37746 | 45 ft | 25 kts | 122° |
| 2026-04-21 23:13 | 25.24684 | 55.37879 | 45 ft | 14 kts | 121° |
| 2026-04-21 23:14 | 25.24693 | 55.37966 | 45 ft | 12 kts | 43° |
| 2026-04-21 23:14 | 25.24762 | 55.38015 | 45 ft | 11 kts | 30° |
| 2026-04-21 23:14 | 25.24821 | 55.37996 | 45 ft | 9 kts | 302° |
| 2026-04-21 23:14 | 25.24838 | 55.37967 | 45 ft | 14 kts | 301° |
| 2026-04-21 23:15 | 25.25019 | 55.37641 | 45 ft | 87 kts | 301° |
| 2026-04-21 23:15 | 25.25475 | 55.36822 | 45 ft | 157 kts | 301° |
| 2026-04-21 23:15 | 25.26115 | 55.35657 | 259 ft | 195 kts | 302° |
| 2026-04-21 23:15 | 25.26845 | 55.34329 | 1018 ft | 203 kts | 303° |
| 2026-04-21 23:16 | 25.27542 | 55.33074 | 1899 ft | 197 kts | 303° |
| 2026-04-21 23:16 | 25.28274 | 55.31765 | 2459 ft | 204 kts | 303° |
| 2026-04-21 23:16 | 25.28938 | 55.30374 | 3097 ft | 208 kts | 288° |
| 2026-04-21 23:16 | 25.29089 | 55.28795 | 3745 ft | 211 kts | 263° |
| 2026-04-21 23:17 | 25.28648 | 55.27264 | 4427 ft | 212 kts | 245° |
| 2026-04-21 23:17 | 25.28022 | 55.25832 | 5177 ft | 208 kts | 245° |
| 2026-04-21 23:17 | 25.27404 | 55.24401 | 5872 ft | 208 kts | 245° |
| 2026-04-21 23:17 | 25.26793 | 55.22966 | 6566 ft | 206 kts | 245° |
| 2026-04-21 23:18 | 25.26191 | 55.21548 | 7208 ft | 206 kts | 245° |
| 2026-04-21 23:18 | 25.25562 | 55.20068 | 7631 ft | 220 kts | 245° |
| 2026-04-21 23:18 | 25.24831 | 55.18524 | 7973 ft | 237 kts | 234° |
| 2026-04-21 23:18 | 25.23572 | 55.17299 | 8547 ft | 246 kts | 208° |
| 2026-04-21 23:19 | 25.21929 | 55.16762 | 9119 ft | 258 kts | 185° |
| 2026-04-21 23:19 | 25.20096 | 55.16883 | 9782 ft | 268 kts | 169° |
| 2026-04-21 23:19 | 25.18393 | 55.17778 | 10400 ft | 282 kts | 143° |
| 2026-04-21 23:19 | 25.17125 | 55.19499 | 10791 ft | 304 kts | 119° |
| 2026-04-21 23:20 | 25.16186 | 55.21654 | 11356 ft | 316 kts | 117° |
| 2026-04-21 23:20 | 25.15225 | 55.23835 | 12102 ft | 320 kts | 118° |
| 2026-04-21 23:20 | 25.14192 | 55.26054 | 12875 ft | 324 kts | 119° |
| 2026-04-21 23:20 | 25.13148 | 55.28245 | 13591 ft | 329 kts | 120° |
| 2026-04-21 23:21 | 25.12066 | 55.30498 | 14327 ft | 333 kts | 119° |
| 2026-04-21 23:21 | 25.10979 | 55.32755 | 15095 ft | 336 kts | 119° |
| 2026-04-21 23:21 | 25.09932 | 55.35055 | 15792 ft | 340 kts | 115° |
| 2026-04-21 23:21 | 25.08970 | 55.37446 | 16484 ft | 344 kts | 114° |
| 2026-04-21 23:22 | 25.08008 | 55.39835 | 17170 ft | 347 kts | 116° |
| 2026-04-21 23:22 | 25.06698 | 55.42069 | 17757 ft | 350 kts | 134° |
| 2026-04-21 23:22 | 25.04783 | 55.43828 | 18086 ft | 361 kts | 153° |
| 2026-04-21 23:22 | 25.02415 | 55.44883 | 18317 ft | 374 kts | 169° |
| 2026-04-21 23:23 | 24.99808 | 55.45289 | 18580 ft | 386 kts | 181° |
| 2026-04-21 23:23 | 24.97053 | 55.45364 | 18930 ft | 402 kts | 180° |
| 2026-04-21 23:23 | 24.94208 | 55.45601 | 19347 ft | 417 kts | 177° |
| 2026-04-21 23:23 | 24.91278 | 55.46000 | 19731 ft | 432 kts | 175° |
| 2026-04-21 23:24 | 24.88286 | 55.46511 | 20274 ft | 441 kts | 173° |
| 2026-04-21 23:24 | 24.85253 | 55.47093 | 20971 ft | 446 kts | 173° |
| 2026-04-21 23:24 | 24.82169 | 55.47726 | 21667 ft | 450 kts | 172° |
| 2026-04-21 23:24 | 24.79064 | 55.48389 | 22307 ft | 455 kts | 172° |
| 2026-04-21 23:25 | 24.75963 | 55.49072 | 23009 ft | 458 kts | 172° |
| 2026-04-21 23:25 | 24.72824 | 55.49776 | 23786 ft | 459 kts | 172° |
| 2026-04-21 23:25 | 24.69700 | 55.50485 | 24489 ft | 462 kts | 171° |
| 2026-04-21 23:25 | 24.66525 | 55.51212 | 25138 ft | 466 kts | 171° |
| 2026-04-21 23:26 | 24.63326 | 55.51949 | 25786 ft | 469 kts | 171° |
| 2026-04-21 23:26 | 24.60106 | 55.52694 | 26418 ft | 473 kts | 171° |
| 2026-04-21 23:26 | 24.56912 | 55.53434 | 27050 ft | 476 kts | 171° |
| 2026-04-21 23:26 | 24.53653 | 55.54192 | 27685 ft | 479 kts | 171° |
| 2026-04-21 23:27 | 24.50355 | 55.54959 | 28317 ft | 482 kts | 171° |
| 2026-04-21 23:27 | 24.47066 | 55.55725 | 28919 ft | 485 kts | 171° |
| 2026-04-21 23:27 | 24.43795 | 55.56487 | 29575 ft | 486 kts | 170° |
| 2026-04-21 23:27 | 24.40411 | 55.57276 | 30300 ft | 485 kts | 171° |
| 2026-04-21 23:28 | 24.37076 | 55.58053 | 30927 ft | 485 kts | 171° |
| 2026-04-21 23:28 | 24.33741 | 55.58829 | 31411 ft | 488 kts | 171° |
| 2026-04-21 23:28 | 24.30413 | 55.59582 | 31872 ft | 490 kts | 174° |
| 2026-04-21 23:28 | 24.27015 | 55.59930 | 32311 ft | 487 kts | 183° |
| 2026-04-21 23:29 | 24.23631 | 55.59700 | 32768 ft | 484 kts | 192° |
| 2026-04-21 23:29 | 24.20353 | 55.58941 | 33265 ft | 480 kts | 198° |
| 2026-04-21 23:29 | 24.17135 | 55.57994 | 33740 ft | 480 kts | 199° |
| 2026-04-21 23:29 | 24.13885 | 55.57021 | 33831 ft | 482 kts | 200° |
| 2026-04-21 23:30 | 24.07448 | 55.55096 | 33840 ft | 477 kts | 199° |
| 2026-04-21 23:30 | 24.01004 | 55.53169 | 33835 ft | 479 kts | 200° |
| 2026-04-21 23:31 | 23.94555 | 55.51251 | 33825 ft | 480 kts | 200° |
| 2026-04-21 23:31 | 23.88135 | 55.49345 | 33821 ft | 479 kts | 199° |
| 2026-04-21 23:32 | 23.81697 | 55.47434 | 33812 ft | 479 kts | 200° |
| 2026-04-21 23:32 | 23.75210 | 55.45507 | 33810 ft | 481 kts | 200° |
| 2026-04-21 23:33 | 23.68759 | 55.43593 | 33797 ft | 481 kts | 200° |
| 2026-04-21 23:33 | 23.62289 | 55.41676 | 33803 ft | 481 kts | 200° |
| 2026-04-21 23:34 | 23.55811 | 55.39812 | 33794 ft | 483 kts | 195° |
| 2026-04-21 23:34 | 23.48992 | 55.39475 | 33793 ft | 497 kts | 177° |
| 2026-04-21 23:35 | 23.42179 | 55.41127 | 33799 ft | 504 kts | 169° |
| 2026-04-21 23:35 | 23.35429 | 55.43247 | 33793 ft | 503 kts | 167° |
| 2026-04-21 23:36 | 23.28688 | 55.45407 | 33796 ft | 507 kts | 167° |
| 2026-04-21 23:36 | 23.21916 | 55.47563 | 33788 ft | 503 kts | 167° |
| 2026-04-21 23:37 | 23.15118 | 55.49714 | 33784 ft | 507 kts | 167° |
| 2026-04-21 23:37 | 23.08344 | 55.51854 | 33788 ft | 506 kts | 167° |
| 2026-04-21 23:38 | 23.01591 | 55.53975 | 33785 ft | 506 kts | 168° |
| 2026-04-21 23:38 | 22.94806 | 55.56059 | 33789 ft | 508 kts | 168° |
| 2026-04-21 23:39 | 22.87981 | 55.58152 | 33786 ft | 508 kts | 168° |
| 2026-04-21 23:39 | 22.81201 | 55.60230 | 33781 ft | 508 kts | 168° |
| 2026-04-21 23:40 | 22.74392 | 55.62316 | 33782 ft | 506 kts | 168° |
| 2026-04-21 23:40 | 22.67571 | 55.64403 | 33776 ft | 507 kts | 168° |
| 2026-04-21 23:41 | 22.60774 | 55.66481 | 33772 ft | 508 kts | 168° |
| 2026-04-21 23:41 | 22.53964 | 55.68567 | 33781 ft | 507 kts | 168° |
| 2026-04-21 23:42 | 22.47151 | 55.70649 | 33790 ft | 510 kts | 168° |
| 2026-04-21 23:42 | 22.40335 | 55.72733 | 33788 ft | 507 kts | 169° |
| 2026-04-21 23:43 | 22.33505 | 55.74817 | 33797 ft | 509 kts | 168° |
| 2026-04-21 23:43 | 22.26682 | 55.76846 | 33786 ft | 505 kts | 173° |
| 2026-04-21 23:44 | 22.19758 | 55.77763 | 33796 ft | 502 kts | 180° |
| 2026-04-21 23:44 | 22.12795 | 55.78450 | 33788 ft | 503 kts | 180° |
| 2026-04-21 23:45 | 22.02377 | 55.79482 | 33782 ft | 502 kts | 180° |
| 2026-04-21 23:46 | 21.95400 | 55.80173 | 33774 ft | 503 kts | 180° |
| 2026-04-21 23:46 | 21.88397 | 55.80867 | 33774 ft | 503 kts | 180° |
| 2026-04-21 23:47 | 21.81436 | 55.81557 | 33773 ft | 504 kts | 180° |
| 2026-04-21 23:47 | 21.74424 | 55.82251 | 33772 ft | 504 kts | 180° |
| 2026-04-21 23:48 | 21.67448 | 55.82940 | 33776 ft | 505 kts | 180° |
| 2026-04-21 23:48 | 21.60389 | 55.83633 | 33777 ft | 508 kts | 180° |
| 2026-04-21 23:49 | 21.53379 | 55.84322 | 33778 ft | 507 kts | 180° |
| 2026-04-21 23:49 | 21.46308 | 55.85015 | 33780 ft | 507 kts | 180° |
| 2026-04-21 23:50 | 21.39266 | 55.85705 | 33781 ft | 508 kts | 180° |
| 2026-04-21 23:50 | 21.32211 | 55.86395 | 33774 ft | 509 kts | 180° |
| 2026-04-21 23:51 | 21.25151 | 55.87085 | 33780 ft | 509 kts | 180° |
| 2026-04-21 23:51 | 21.18090 | 55.87774 | 33780 ft | 508 kts | 180° |
| 2026-04-21 23:52 | 21.11003 | 55.88462 | 33782 ft | 513 kts | 180° |
| 2026-04-21 23:52 | 21.03920 | 55.89153 | 33786 ft | 510 kts | 180° |
| 2026-04-21 23:53 | 20.96802 | 55.89843 | 33801 ft | 514 kts | 180° |
| 2026-04-21 23:53 | 20.89718 | 55.90532 | 33813 ft | 511 kts | 180° |
| 2026-04-21 23:54 | 20.82590 | 55.91224 | 33803 ft | 512 kts | 180° |
| 2026-04-21 23:54 | 20.75490 | 55.91912 | 33806 ft | 513 kts | 180° |
| 2026-04-21 23:55 | 20.68312 | 55.92607 | 33811 ft | 515 kts | 180° |
| 2026-04-21 23:55 | 20.61682 | 55.93249 | 33811 ft | 515 kts | 180° |
| 2026-04-21 23:56 | 20.54540 | 55.93940 | 33812 ft | 515 kts | 180° |
| 2026-04-21 23:56 | 20.47387 | 55.94632 | 33812 ft | 514 kts | 180° |
| 2026-04-21 23:57 | 20.40233 | 55.95322 | 33814 ft | 515 kts | 180° |
| 2026-04-21 23:57 | 20.33108 | 55.96008 | 33816 ft | 518 kts | 180° |
| 2026-04-21 23:58 | 20.25894 | 55.96700 | 33816 ft | 514 kts | 180° |
| 2026-04-21 23:58 | 20.18757 | 55.97378 | 33821 ft | 519 kts | 180° |
| 2026-04-21 23:59 | 20.11568 | 55.98063 | 33826 ft | 516 kts | 180° |
| 2026-04-21 23:59 | 20.04417 | 55.98587 | 33829 ft | 513 kts | 184° |
| 2026-04-22 00:00 | 19.97240 | 55.98719 | 33823 ft | 511 kts | 185° |
| 2026-04-22 00:00 | 19.90110 | 55.98861 | 33831 ft | 515 kts | 184° |
| 2026-04-22 00:01 | 19.82940 | 55.99023 | 33819 ft | 510 kts | 184° |
| 2026-04-22 00:01 | 19.75796 | 55.99189 | 33829 ft | 516 kts | 184° |
| 2026-04-22 00:02 | 19.68594 | 55.99364 | 33826 ft | 516 kts | 184° |
| 2026-04-22 00:02 | 19.61436 | 55.99540 | 33831 ft | 515 kts | 184° |
| 2026-04-22 00:03 | 19.54250 | 55.99717 | 33843 ft | 517 kts | 184° |
| 2026-04-22 00:03 | 19.47032 | 55.99896 | 33843 ft | 516 kts | 185° |
| 2026-04-22 00:04 | 19.39830 | 56.00074 | 33853 ft | 519 kts | 185° |
| 2026-04-22 00:04 | 19.32615 | 56.00254 | 33853 ft | 519 kts | 185° |
| 2026-04-22 00:05 | 19.25365 | 56.00434 | 33850 ft | 519 kts | 184° |
| 2026-04-22 00:05 | 19.18183 | 56.00613 | 33852 ft | 519 kts | 185° |
| 2026-04-22 00:06 | 19.10957 | 56.00791 | 33856 ft | 520 kts | 184° |
| 2026-04-22 00:06 | 19.03686 | 56.00972 | 33848 ft | 522 kts | 185° |
| 2026-04-22 00:07 | 18.96454 | 56.00808 | 33844 ft | 511 kts | 195° |
| 2026-04-22 00:07 | 18.89534 | 55.99158 | 33846 ft | 508 kts | 201° |
| 2026-04-22 00:08 | 18.82677 | 55.97326 | 33847 ft | 504 kts | 201° |
| 2026-04-22 00:08 | 18.75876 | 55.95509 | 33853 ft | 503 kts | 201° |
| 2026-04-22 00:09 | 18.69047 | 55.93686 | 33855 ft | 507 kts | 201° |
| 2026-04-22 00:09 | 18.62232 | 55.91871 | 33859 ft | 504 kts | 201° |
| 2026-04-22 00:10 | 18.55413 | 55.90055 | 33858 ft | 506 kts | 201° |
| 2026-04-22 00:10 | 18.48576 | 55.88237 | 33860 ft | 505 kts | 201° |
| 2026-04-22 00:11 | 18.41731 | 55.86418 | 33866 ft | 506 kts | 201° |
| 2026-04-22 00:11 | 18.34926 | 55.84612 | 33864 ft | 505 kts | 200° |
| 2026-04-22 00:12 | 18.28113 | 55.82805 | 33871 ft | 506 kts | 200° |
| 2026-04-22 00:12 | 18.21251 | 55.80986 | 33874 ft | 504 kts | 200° |
| 2026-04-22 00:13 | 18.14415 | 55.79175 | 33876 ft | 506 kts | 200° |
| 2026-04-22 00:13 | 18.07621 | 55.77378 | 33876 ft | 503 kts | 200° |
| 2026-04-22 00:14 | 18.00812 | 55.75577 | 33880 ft | 506 kts | 200° |
| 2026-04-22 00:14 | 17.93810 | 55.74333 | 33873 ft | 512 kts | 193° |
| 2026-04-22 00:15 | 17.86710 | 55.73430 | 33855 ft | 511 kts | 193° |
| 2026-04-22 00:15 | 17.79675 | 55.72533 | 33846 ft | 511 kts | 193° |
| 2026-04-22 00:16 | 17.72571 | 55.71627 | 33836 ft | 511 kts | 193° |
| 2026-04-22 00:16 | 17.65495 | 55.70723 | 33836 ft | 511 kts | 193° |
| 2026-04-22 00:17 | 17.58408 | 55.69818 | 33841 ft | 512 kts | 193° |
| 2026-04-22 00:17 | 17.51301 | 55.68910 | 33841 ft | 512 kts | 193° |
| 2026-04-22 00:18 | 17.44255 | 55.68011 | 33842 ft | 511 kts | 193° |
| 2026-04-22 00:18 | 17.37139 | 55.67103 | 33840 ft | 511 kts | 193° |
| 2026-04-22 00:19 | 17.30059 | 55.66200 | 33844 ft | 513 kts | 193° |
| 2026-04-22 00:19 | 17.23000 | 55.65302 | 33841 ft | 511 kts | 193° |
| 2026-04-22 00:20 | 17.15900 | 55.64397 | 33843 ft | 513 kts | 193° |
| 2026-04-22 00:20 | 17.08820 | 55.63497 | 33847 ft | 512 kts | 193° |
| 2026-04-22 00:21 | 17.01704 | 55.62593 | 33847 ft | 513 kts | 193° |
| 2026-04-22 00:21 | 16.94634 | 55.61695 | 33851 ft | 512 kts | 192° |
| 2026-04-22 00:22 | 16.87493 | 55.60789 | 33846 ft | 513 kts | 192° |
| 2026-04-22 00:22 | 16.80388 | 55.59899 | 33856 ft | 515 kts | 192° |
| 2026-04-22 00:23 | 16.73298 | 55.59013 | 33858 ft | 512 kts | 192° |
| 2026-04-22 00:23 | 16.66193 | 55.58124 | 33857 ft | 515 kts | 192° |
| 2026-04-22 00:24 | 16.59063 | 55.57234 | 33852 ft | 513 kts | 192° |
| 2026-04-22 00:24 | 16.51958 | 55.56347 | 33850 ft | 514 kts | 192° |
| 2026-04-22 00:25 | 16.44839 | 55.55459 | 33848 ft | 513 kts | 192° |
| 2026-04-22 00:25 | 16.37708 | 55.54570 | 33846 ft | 514 kts | 192° |
| 2026-04-22 00:26 | 16.30630 | 55.53688 | 33846 ft | 514 kts | 192° |
| 2026-04-22 00:26 | 16.23485 | 55.52799 | 33845 ft | 514 kts | 192° |
| 2026-04-22 00:27 | 16.16409 | 55.51919 | 33846 ft | 512 kts | 192° |
| 2026-04-22 00:27 | 16.09252 | 55.51028 | 33847 ft | 515 kts | 192° |
| 2026-04-22 00:28 | 16.02159 | 55.50148 | 33849 ft | 514 kts | 192° |
| 2026-04-22 00:28 | 15.95019 | 55.49262 | 33848 ft | 513 kts | 192° |
| 2026-04-22 00:29 | 15.87908 | 55.48379 | 33838 ft | 515 kts | 192° |
| 2026-04-22 00:29 | 15.80809 | 55.47500 | 33838 ft | 513 kts | 192° |
| 2026-04-22 00:30 | 15.73700 | 55.46617 | 33844 ft | 513 kts | 192° |
| 2026-04-22 00:30 | 15.70664 | 55.46237 | 33806 ft | 515 kts | 192° |
| 2026-04-22 00:31 | 15.63541 | 55.45320 | 33770 ft | 514 kts | 192° |
| 2026-04-22 00:31 | 15.59071 | 55.44733 | 33757 ft | 515 kts | 192° |
| 2026-04-22 00:32 | 15.54427 | 55.44103 | 33825 ft | 512 kts | 193° |
| 2026-04-22 00:33 | 15.47666 | 55.43114 | 33767 ft | 515 kts | 193° |
| 2026-04-22 00:33 | 15.40596 | 55.42008 | 33728 ft | 513 kts | 192° |
| 2026-04-22 00:34 | 15.37216 | 55.41668 | 33653 ft | 517 kts | 189° |
| 2026-04-22 00:34 | 15.34069 | 55.41441 | 33909 ft | 512 kts | 189° |
| 2026-04-22 00:35 | 15.26894 | 55.40704 | 33850 ft | 514 kts | 191° |
| 2026-04-22 00:35 | 15.19794 | 55.39889 | 33853 ft | 513 kts | 191° |
| 2026-04-22 00:36 | 15.12665 | 55.39033 | 33854 ft | 513 kts | 191° |
| 2026-04-22 00:36 | 15.05564 | 55.38160 | 33856 ft | 514 kts | 192° |
| 2026-04-22 00:37 | 14.98456 | 55.37280 | 33857 ft | 514 kts | 192° |
| 2026-04-22 00:37 | 14.91324 | 55.36393 | 33856 ft | 514 kts | 191° |
| 2026-04-22 00:38 | 14.84218 | 55.35508 | 33847 ft | 512 kts | 191° |
| 2026-04-22 00:38 | 14.77074 | 55.34617 | 33855 ft | 513 kts | 191° |
| 2026-04-22 00:39 | 14.69993 | 55.33734 | 33852 ft | 514 kts | 191° |
| 2026-04-22 00:39 | 14.62880 | 55.32846 | 33851 ft | 512 kts | 191° |
| 2026-04-22 00:40 | 14.55784 | 55.31957 | 33850 ft | 512 kts | 191° |
| 2026-04-22 00:40 | 14.48674 | 55.31073 | 33851 ft | 513 kts | 191° |
| 2026-04-22 00:41 | 14.41607 | 55.30194 | 33856 ft | 513 kts | 191° |
| 2026-04-22 00:41 | 14.34498 | 55.29311 | 33857 ft | 511 kts | 191° |
| 2026-04-22 00:42 | 14.27396 | 55.28428 | 33859 ft | 512 kts | 191° |
| 2026-04-22 00:42 | 14.20331 | 55.27551 | 33861 ft | 512 kts | 191° |
| 2026-04-22 00:43 | 14.13227 | 55.26669 | 33858 ft | 512 kts | 191° |
| 2026-04-22 00:43 | 14.06130 | 55.25789 | 33861 ft | 511 kts | 191° |
| 2026-04-22 00:44 | 13.99084 | 55.24915 | 33859 ft | 511 kts | 191° |
| 2026-04-22 00:44 | 13.91993 | 55.24036 | 33869 ft | 511 kts | 191° |
| 2026-04-22 00:45 | 13.84901 | 55.23148 | 33867 ft | 512 kts | 191° |
| 2026-04-22 00:45 | 13.77812 | 55.22252 | 33866 ft | 512 kts | 191° |
| 2026-04-22 00:46 | 13.70736 | 55.21360 | 33864 ft | 510 kts | 191° |
| 2026-04-22 00:46 | 13.63645 | 55.20466 | 33869 ft | 512 kts | 191° |
| 2026-04-22 00:47 | 13.56578 | 55.19577 | 33869 ft | 511 kts | 191° |
| 2026-04-22 00:47 | 13.49495 | 55.18686 | 33871 ft | 511 kts | 191° |
| 2026-04-22 00:48 | 13.42429 | 55.17798 | 33868 ft | 511 kts | 190° |
| 2026-04-22 00:48 | 13.35349 | 55.16907 | 33870 ft | 511 kts | 191° |
| 2026-04-22 00:49 | 13.28271 | 55.16019 | 33873 ft | 511 kts | 191° |
| 2026-04-22 00:49 | 13.21205 | 55.15132 | 33871 ft | 510 kts | 191° |
| 2026-04-22 00:50 | 13.14156 | 55.14248 | 33872 ft | 510 kts | 190° |
| 2026-04-22 00:50 | 13.07106 | 55.13364 | 33871 ft | 509 kts | 190° |
| 2026-04-22 00:51 | 12.99997 | 55.12474 | 33871 ft | 511 kts | 190° |
| 2026-04-22 00:51 | 12.92979 | 55.11595 | 33873 ft | 510 kts | 190° |
| 2026-04-22 00:52 | 12.85911 | 55.10711 | 33865 ft | 509 kts | 190° |
| 2026-04-22 00:52 | 12.78809 | 55.09822 | 33866 ft | 511 kts | 190° |
| 2026-04-22 00:53 | 12.71743 | 55.08939 | 33866 ft | 510 kts | 190° |
| 2026-04-22 00:53 | 12.64679 | 55.08057 | 33866 ft | 510 kts | 190° |
| 2026-04-22 00:54 | 12.57630 | 55.07177 | 33868 ft | 510 kts | 190° |
| 2026-04-22 00:54 | 12.50553 | 55.06294 | 33869 ft | 510 kts | 190° |
| 2026-04-22 00:55 | 12.43492 | 55.05413 | 33869 ft | 509 kts | 190° |
| 2026-04-22 00:55 | 12.32917 | 55.04095 | 33870 ft | 511 kts | 190° |
| 2026-04-22 00:56 | 12.25815 | 55.03211 | 33871 ft | 510 kts | 190° |
| 2026-04-22 00:56 | 12.18784 | 55.02336 | 33873 ft | 509 kts | 190° |
| 2026-04-22 00:57 | 12.11713 | 55.01456 | 33866 ft | 511 kts | 190° |
| 2026-04-22 00:57 | 12.04615 | 55.00573 | 33855 ft | 511 kts | 189° |
| 2026-04-22 00:58 | 11.97516 | 54.99989 | 33859 ft | 513 kts | 183° |
| 2026-04-22 00:58 | 11.90370 | 54.99985 | 33854 ft | 512 kts | 182° |
| 2026-04-22 00:59 | 11.83218 | 54.99992 | 33844 ft | 512 kts | 182° |
| 2026-04-22 00:59 | 11.76055 | 54.99995 | 33844 ft | 512 kts | 182° |
| 2026-04-22 01:00 | 11.68903 | 54.99997 | 33844 ft | 513 kts | 182° |
| 2026-04-22 01:00 | 11.61775 | 54.99999 | 33845 ft | 513 kts | 182° |
| 2026-04-22 01:01 | 11.54590 | 54.99999 | 33850 ft | 513 kts | 182° |
| 2026-04-22 01:01 | 11.47463 | 55.00000 | 33857 ft | 512 kts | 182° |
| 2026-04-22 01:02 | 11.40286 | 55.00000 | 33857 ft | 513 kts | 182° |
| 2026-04-22 01:02 | 11.33151 | 55.00000 | 33867 ft | 511 kts | 182° |
| 2026-04-22 01:03 | 11.25974 | 55.00000 | 33869 ft | 513 kts | 182° |
| 2026-04-22 01:03 | 11.18839 | 55.00000 | 33869 ft | 512 kts | 182° |
| 2026-04-22 01:04 | 11.11692 | 55.00000 | 33867 ft | 513 kts | 182° |
| 2026-04-22 01:04 | 11.04536 | 55.00000 | 33872 ft | 512 kts | 182° |
| 2026-04-22 01:05 | 10.97392 | 55.00000 | 33871 ft | 512 kts | 182° |
| 2026-04-22 01:05 | 10.90209 | 55.00000 | 33875 ft | 512 kts | 182° |
| 2026-04-22 01:06 | 10.83094 | 55.00000 | 33867 ft | 513 kts | 182° |
| 2026-04-22 01:06 | 10.75933 | 55.00000 | 33866 ft | 510 kts | 182° |
| 2026-04-22 01:07 | 10.68775 | 55.00000 | 33869 ft | 512 kts | 182° |
| 2026-04-22 01:07 | 10.61661 | 55.00000 | 33867 ft | 512 kts | 182° |
| 2026-04-22 01:08 | 10.54488 | 55.00000 | 33868 ft | 511 kts | 182° |
| 2026-04-22 01:08 | 10.47358 | 55.00000 | 33868 ft | 511 kts | 182° |
| 2026-04-22 01:09 | 10.40246 | 55.00000 | 33869 ft | 511 kts | 182° |
| 2026-04-22 01:09 | 10.33081 | 55.00000 | 33870 ft | 512 kts | 182° |
| 2026-04-22 01:10 | 10.25924 | 55.00000 | 33870 ft | 512 kts | 182° |
| 2026-04-22 01:10 | 10.18780 | 55.00000 | 33871 ft | 511 kts | 182° |
| 2026-04-22 01:11 | 10.11630 | 55.00000 | 33872 ft | 512 kts | 182° |
| 2026-04-22 01:11 | 10.04484 | 55.00000 | 33872 ft | 510 kts | 182° |
| 2026-04-22 01:12 | 9.97348 | 55.00000 | 33873 ft | 512 kts | 182° |
| 2026-04-22 01:12 | 9.90191 | 55.00000 | 33871 ft | 511 kts | 182° |
| 2026-04-22 01:13 | 9.83042 | 55.00000 | 33856 ft | 513 kts | 182° |
| 2026-04-22 01:13 | 9.75917 | 55.00000 | 33847 ft | 513 kts | 182° |
| 2026-04-22 01:14 | 9.68765 | 55.00000 | 33846 ft | 511 kts | 182° |
| 2026-04-22 01:14 | 9.61636 | 55.00000 | 33847 ft | 511 kts | 182° |
| 2026-04-22 01:15 | 9.54494 | 55.00000 | 33847 ft | 512 kts | 182° |
| 2026-04-22 01:15 | 9.47316 | 55.00000 | 33848 ft | 511 kts | 181° |
| 2026-04-22 01:16 | 9.40171 | 55.00000 | 33851 ft | 512 kts | 181° |
| 2026-04-22 01:16 | 9.33008 | 55.00000 | 33856 ft | 512 kts | 182° |
| 2026-04-22 01:17 | 9.25864 | 55.00000 | 33859 ft | 512 kts | 181° |
| 2026-04-22 01:17 | 9.18704 | 55.00000 | 33868 ft | 514 kts | 181° |
| 2026-04-22 01:18 | 9.11553 | 55.00000 | 33871 ft | 513 kts | 181° |
| 2026-04-22 01:18 | 9.04366 | 55.00000 | 33872 ft | 513 kts | 181° |
| 2026-04-22 01:19 | 8.97235 | 55.00000 | 33872 ft | 511 kts | 181° |
| 2026-04-22 01:19 | 8.90099 | 55.00000 | 33869 ft | 510 kts | 181° |
| 2026-04-22 01:20 | 8.82952 | 55.00000 | 33862 ft | 512 kts | 181° |
| 2026-04-22 01:20 | 8.75794 | 55.00000 | 33859 ft | 512 kts | 181° |
| 2026-04-22 01:21 | 8.68670 | 55.00000 | 33861 ft | 512 kts | 181° |
| 2026-04-22 01:21 | 8.61493 | 55.00000 | 33858 ft | 511 kts | 181° |
| 2026-04-22 01:22 | 8.54349 | 55.00000 | 33858 ft | 511 kts | 181° |
| 2026-04-22 01:22 | 8.47179 | 55.00000 | 33852 ft | 510 kts | 181° |
| 2026-04-22 01:23 | 8.40077 | 55.00000 | 33861 ft | 512 kts | 181° |
| 2026-04-22 01:23 | 8.32929 | 55.00000 | 33867 ft | 511 kts | 181° |
| 2026-04-22 01:24 | 8.25807 | 55.00000 | 33869 ft | 511 kts | 181° |
| 2026-04-22 01:24 | 8.18660 | 55.00000 | 33866 ft | 510 kts | 181° |
| 2026-04-22 01:25 | 8.11529 | 55.00000 | 33868 ft | 510 kts | 181° |
| 2026-04-22 01:25 | 8.04435 | 55.00000 | 33856 ft | 510 kts | 181° |
| 2026-04-22 01:26 | 7.97285 | 55.00000 | 33855 ft | 511 kts | 181° |
| 2026-04-22 01:26 | 7.90157 | 55.00000 | 33854 ft | 511 kts | 181° |
| 2026-04-22 01:27 | 7.82988 | 55.00000 | 33841 ft | 510 kts | 181° |
| 2026-04-22 01:27 | 7.75865 | 55.00000 | 33843 ft | 510 kts | 181° |
| 2026-04-22 01:28 | 7.68780 | 55.00000 | 33845 ft | 509 kts | 181° |
| 2026-04-22 01:28 | 7.61592 | 55.00000 | 33848 ft | 511 kts | 181° |
| 2026-04-22 01:29 | 7.54471 | 55.00000 | 33844 ft | 511 kts | 181° |
| 2026-04-22 01:29 | 7.47357 | 55.00000 | 33847 ft | 510 kts | 181° |
| 2026-04-22 01:30 | 7.40217 | 55.00000 | 33847 ft | 510 kts | 181° |
| 2026-04-22 01:30 | 7.33444 | 55.00000 | 33849 ft | 510 kts | 181° |
| 2026-04-22 01:31 | 7.26348 | 55.00000 | 33848 ft | 509 kts | 181° |
| 2026-04-22 01:31 | 7.19278 | 55.00000 | 33851 ft | 510 kts | 181° |
| 2026-04-22 01:32 | 7.12129 | 55.00000 | 33851 ft | 509 kts | 181° |
| 2026-04-22 01:32 | 7.05008 | 55.00000 | 33852 ft | 511 kts | 181° |
| 2026-04-22 01:33 | 6.99132 | 55.00000 | 33854 ft | 510 kts | 181° |
| 2026-04-22 01:34 | 6.85026 | 55.00000 | 33848 ft | 509 kts | 181° |
| 2026-04-22 01:34 | 6.78521 | 55.00000 | 33848 ft | 510 kts | 181° |
| 2026-04-22 01:35 | 6.71348 | 55.00000 | 33845 ft | 509 kts | 181° |
| 2026-04-22 01:35 | 6.64254 | 55.00000 | 33848 ft | 509 kts | 181° |
| 2026-04-22 01:36 | 6.57097 | 55.00000 | 33846 ft | 510 kts | 181° |
| 2026-04-22 01:36 | 6.50001 | 55.00000 | 33844 ft | 509 kts | 181° |
| 2026-04-22 01:37 | 6.42909 | 55.00000 | 33841 ft | 508 kts | 181° |
| 2026-04-22 01:37 | 6.35788 | 55.00000 | 33850 ft | 508 kts | 181° |
| 2026-04-22 01:38 | 6.28679 | 55.00000 | 33844 ft | 509 kts | 181° |
| 2026-04-22 01:38 | 6.21600 | 55.00000 | 33851 ft | 509 kts | 181° |
| 2026-04-22 01:39 | 6.14475 | 55.00000 | 33848 ft | 508 kts | 180° |
| 2026-04-22 01:39 | 6.07357 | 55.00000 | 33841 ft | 508 kts | 181° |
| 2026-04-22 01:40 | 6.00267 | 55.00000 | 33832 ft | 507 kts | 181° |
| 2026-04-22 01:40 | 5.93181 | 55.00000 | 33832 ft | 509 kts | 181° |
| 2026-04-22 01:41 | 5.86081 | 55.00000 | 33823 ft | 508 kts | 180° |
| 2026-04-22 01:41 | 5.78930 | 55.00000 | 33825 ft | 507 kts | 180° |
| 2026-04-22 01:42 | 5.71871 | 55.00000 | 33829 ft | 508 kts | 180° |
| 2026-04-22 01:42 | 5.64749 | 55.00000 | 33835 ft | 507 kts | 181° |
| 2026-04-22 01:43 | 5.57689 | 55.00000 | 33841 ft | 508 kts | 181° |
| 2026-04-22 01:43 | 5.50618 | 55.00000 | 33846 ft | 508 kts | 181° |
| 2026-04-22 01:44 | 5.43524 | 55.00000 | 33849 ft | 507 kts | 180° |
| 2026-04-22 01:44 | 5.36414 | 55.00113 | 33850 ft | 506 kts | 176° |
| 2026-04-22 01:45 | 5.29346 | 55.00679 | 33849 ft | 507 kts | 176° |
| 2026-04-22 01:45 | 5.22337 | 55.01231 | 33850 ft | 508 kts | 176° |
| 2026-04-22 01:46 | 5.15242 | 55.01772 | 33850 ft | 507 kts | 176° |
| 2026-04-22 01:46 | 5.08190 | 55.02301 | 33850 ft | 506 kts | 176° |
| 2026-04-22 01:47 | 5.01148 | 55.02824 | 33852 ft | 506 kts | 176° |
| 2026-04-22 01:47 | 4.94104 | 55.03344 | 33849 ft | 506 kts | 176° |
| 2026-04-22 01:48 | 4.87091 | 55.03860 | 33844 ft | 505 kts | 176° |
| 2026-04-22 01:48 | 4.80017 | 55.04379 | 33844 ft | 507 kts | 176° |
| 2026-04-22 01:49 | 4.72995 | 55.04894 | 33843 ft | 506 kts | 176° |
| 2026-04-22 01:49 | 4.65933 | 55.05412 | 33846 ft | 506 kts | 176° |
| 2026-04-22 01:50 | 4.58920 | 55.05926 | 33846 ft | 504 kts | 176° |
| 2026-04-22 01:50 | 4.51904 | 55.06440 | 33847 ft | 504 kts | 176° |
| 2026-04-22 01:51 | 4.44869 | 55.06955 | 33843 ft | 504 kts | 176° |
| 2026-04-22 01:51 | 4.37838 | 55.07470 | 33838 ft | 505 kts | 176° |
| 2026-04-22 01:52 | 4.30790 | 55.07985 | 33831 ft | 504 kts | 176° |
| 2026-04-22 01:52 | 4.23793 | 55.08497 | 33830 ft | 503 kts | 176° |
| 2026-04-22 01:53 | 4.16770 | 55.09011 | 33827 ft | 504 kts | 176° |
| 2026-04-22 01:53 | 4.09741 | 55.09525 | 33831 ft | 502 kts | 176° |
| 2026-04-22 01:54 | 4.02783 | 55.10035 | 33829 ft | 503 kts | 176° |
| 2026-04-22 01:54 | 3.95730 | 55.10551 | 33830 ft | 503 kts | 176° |
| 2026-04-22 01:55 | 3.88667 | 55.11068 | 33831 ft | 502 kts | 176° |
| 2026-04-22 01:55 | 3.81684 | 55.11580 | 33838 ft | 502 kts | 176° |
| 2026-04-22 01:56 | 3.74660 | 55.12094 | 33840 ft | 502 kts | 176° |
| 2026-04-22 01:56 | 3.67678 | 55.12605 | 33838 ft | 502 kts | 176° |
| 2026-04-22 01:57 | 3.60656 | 55.13118 | 33843 ft | 502 kts | 176° |
| 2026-04-22 01:57 | 3.53671 | 55.13629 | 33845 ft | 501 kts | 176° |
| 2026-04-22 01:58 | 3.46692 | 55.14140 | 33847 ft | 500 kts | 176° |
| 2026-04-22 01:58 | 3.39722 | 55.14649 | 33849 ft | 501 kts | 176° |
| 2026-04-22 01:59 | 3.32750 | 55.15158 | 33848 ft | 501 kts | 176° |
| 2026-04-22 01:59 | 3.25803 | 55.15666 | 33849 ft | 500 kts | 176° |
| 2026-04-22 02:00 | 3.18844 | 55.16175 | 33850 ft | 499 kts | 176° |
| 2026-04-22 02:00 | 3.11846 | 55.16686 | 33850 ft | 499 kts | 176° |
| 2026-04-22 02:01 | 3.04911 | 55.17193 | 33852 ft | 500 kts | 175° |
| 2026-04-22 02:01 | 2.97953 | 55.17701 | 33850 ft | 499 kts | 175° |
| 2026-04-22 02:02 | 2.90965 | 55.18211 | 33851 ft | 500 kts | 175° |
| 2026-04-22 02:02 | 2.84006 | 55.18720 | 33846 ft | 498 kts | 175° |
| 2026-04-22 02:03 | 2.77088 | 55.19224 | 33845 ft | 498 kts | 176° |
| 2026-04-22 02:03 | 2.70104 | 55.19735 | 33846 ft | 499 kts | 175° |
| 2026-04-22 02:04 | 2.59717 | 55.20493 | 33844 ft | 498 kts | 175° |
| 2026-04-22 02:05 | 2.52774 | 55.20999 | 33838 ft | 498 kts | 176° |
| 2026-04-22 02:05 | 2.45827 | 55.21507 | 33834 ft | 498 kts | 176° |
| 2026-04-22 02:06 | 2.38865 | 55.22014 | 33833 ft | 498 kts | 176° |
| 2026-04-22 02:06 | 2.31974 | 55.22516 | 33830 ft | 497 kts | 175° |
| 2026-04-22 02:07 | 2.25013 | 55.23023 | 33832 ft | 498 kts | 176° |
| 2026-04-22 02:07 | 2.18081 | 55.23529 | 33833 ft | 498 kts | 176° |
| 2026-04-22 02:08 | 2.11139 | 55.24035 | 33832 ft | 497 kts | 176° |
| 2026-04-22 02:08 | 2.04210 | 55.24540 | 33830 ft | 496 kts | 176° |
| 2026-04-22 02:09 | 1.97303 | 55.25044 | 33829 ft | 497 kts | 176° |
| 2026-04-22 02:09 | 1.90378 | 55.25549 | 33838 ft | 497 kts | 176° |
| 2026-04-22 02:10 | 1.83421 | 55.26056 | 33839 ft | 497 kts | 176° |
| 2026-04-22 02:10 | 1.76502 | 55.26561 | 33838 ft | 497 kts | 176° |
| 2026-04-22 02:11 | 1.69570 | 55.27066 | 33845 ft | 498 kts | 176° |
| 2026-04-22 02:11 | 1.62602 | 55.27574 | 33846 ft | 497 kts | 176° |
| 2026-04-22 02:12 | 1.55623 | 55.28083 | 33847 ft | 498 kts | 176° |
| 2026-04-22 02:12 | 1.48722 | 55.28586 | 33847 ft | 498 kts | 176° |
| 2026-04-22 02:13 | 1.41741 | 55.29095 | 33849 ft | 499 kts | 176° |
| 2026-04-22 02:13 | 1.34792 | 55.29601 | 33849 ft | 498 kts | 176° |
| 2026-04-22 02:14 | 1.27844 | 55.29881 | 33846 ft | 498 kts | 179° |
| 2026-04-22 02:14 | 1.20880 | 55.30031 | 33848 ft | 498 kts | 179° |
| 2026-04-22 02:15 | 1.13930 | 55.30193 | 33848 ft | 499 kts | 179° |
| 2026-04-22 02:15 | 1.06964 | 55.30363 | 33849 ft | 498 kts | 179° |
| 2026-04-22 02:16 | 1.00025 | 55.30537 | 33847 ft | 498 kts | 179° |
| 2026-04-22 02:16 | 0.93067 | 55.30713 | 33852 ft | 499 kts | 179° |
| 2026-04-22 02:17 | 0.86078 | 55.30891 | 33847 ft | 499 kts | 179° |
| 2026-04-22 02:17 | 0.79100 | 55.31070 | 33846 ft | 499 kts | 179° |
| 2026-04-22 02:18 | 0.72140 | 55.31249 | 33848 ft | 499 kts | 179° |
| 2026-04-22 02:18 | 0.65168 | 55.31428 | 33845 ft | 498 kts | 179° |
| 2026-04-22 02:19 | 0.58200 | 55.31607 | 33847 ft | 498 kts | 179° |
| 2026-04-22 02:19 | 0.51254 | 55.31786 | 33844 ft | 500 kts | 179° |
| 2026-04-22 02:20 | 0.44280 | 55.31965 | 33840 ft | 500 kts | 179° |
| 2026-04-22 02:20 | 0.37297 | 55.32145 | 33834 ft | 499 kts | 179° |
| 2026-04-22 02:21 | 0.30270 | 55.32326 | 33829 ft | 499 kts | 179° |
| 2026-04-22 02:21 | 0.23303 | 55.32505 | 33830 ft | 499 kts | 179° |
| 2026-04-22 02:22 | 0.16333 | 55.32684 | 33831 ft | 498 kts | 179° |
| 2026-04-22 02:22 | 0.09362 | 55.32864 | 33831 ft | 500 kts | 179° |
| 2026-04-22 02:23 | 0.02410 | 55.33042 | 33827 ft | 499 kts | 179° |
| 2026-04-22 02:23 | -0.04586 | 55.33222 | 33837 ft | 500 kts | 179° |
| 2026-04-22 02:24 | -0.11571 | 55.33402 | 33848 ft | 499 kts | 179° |
| 2026-04-22 02:24 | -0.18535 | 55.33581 | 33849 ft | 500 kts | 179° |
| 2026-04-22 02:25 | -0.25508 | 55.33761 | 33846 ft | 499 kts | 179° |
| 2026-04-22 02:25 | -0.32437 | 55.33939 | 33849 ft | 499 kts | 179° |
| 2026-04-22 02:26 | -0.39410 | 55.34118 | 33847 ft | 499 kts | 179° |
| 2026-04-22 02:26 | -0.46392 | 55.34298 | 33849 ft | 497 kts | 179° |
| 2026-04-22 02:27 | -0.53368 | 55.34477 | 33849 ft | 497 kts | 179° |
| 2026-04-22 02:27 | -0.60304 | 55.34656 | 33848 ft | 498 kts | 179° |
| 2026-04-22 02:28 | -0.67258 | 55.34835 | 33847 ft | 498 kts | 179° |
| 2026-04-22 02:28 | -0.74228 | 55.35014 | 33849 ft | 497 kts | 179° |
| 2026-04-22 02:29 | -0.81198 | 55.35193 | 33850 ft | 498 kts | 179° |
| 2026-04-22 02:29 | -0.88168 | 55.35372 | 33852 ft | 498 kts | 179° |
| 2026-04-22 02:30 | -0.95071 | 55.35550 | 33851 ft | 497 kts | 179° |
| 2026-04-22 02:30 | -1.02012 | 55.35729 | 33849 ft | 498 kts | 179° |
| 2026-04-22 02:31 | -1.08964 | 55.35908 | 33852 ft | 498 kts | 179° |
| 2026-04-22 02:31 | -1.15957 | 55.36088 | 33847 ft | 499 kts | 179° |
| 2026-04-22 02:32 | -1.22946 | 55.36268 | 33846 ft | 499 kts | 179° |
| 2026-04-22 02:32 | -1.29902 | 55.36447 | 33847 ft | 498 kts | 179° |
| 2026-04-22 02:33 | -1.36830 | 55.36625 | 33848 ft | 498 kts | 179° |
| 2026-04-22 02:33 | -1.43835 | 55.36807 | 33848 ft | 498 kts | 179° |
| 2026-04-22 02:34 | -1.50778 | 55.36986 | 33848 ft | 499 kts | 179° |
| 2026-04-22 02:34 | -1.57767 | 55.37167 | 33849 ft | 499 kts | 179° |
| 2026-04-22 02:35 | -1.64728 | 55.37347 | 33852 ft | 499 kts | 179° |
| 2026-04-22 02:35 | -1.71735 | 55.37528 | 33862 ft | 500 kts | 179° |
| 2026-04-22 02:36 | -1.78738 | 55.37708 | 33870 ft | 500 kts | 179° |
| 2026-04-22 02:36 | -1.85720 | 55.37888 | 33870 ft | 500 kts | 179° |
| 2026-04-22 02:37 | -1.92673 | 55.38067 | 33868 ft | 499 kts | 179° |
| 2026-04-22 02:37 | -1.99674 | 55.38248 | 33866 ft | 500 kts | 179° |
| 2026-04-22 02:38 | -2.06646 | 55.38427 | 33857 ft | 500 kts | 179° |
| 2026-04-22 02:38 | -2.13665 | 55.38606 | 33859 ft | 500 kts | 179° |
| 2026-04-22 02:39 | -2.20648 | 55.38818 | 33852 ft | 500 kts | 179° |
| 2026-04-22 02:39 | -2.27605 | 55.39089 | 33855 ft | 499 kts | 179° |
| 2026-04-22 02:40 | -2.34594 | 55.39360 | 33854 ft | 498 kts | 179° |
| 2026-04-22 02:40 | -2.41532 | 55.39626 | 33851 ft | 499 kts | 179° |
| 2026-04-22 02:41 | -2.48534 | 55.39894 | 33850 ft | 498 kts | 179° |
| 2026-04-22 02:41 | -2.55470 | 55.40159 | 33849 ft | 498 kts | 179° |
| 2026-04-22 02:42 | -2.62430 | 55.40424 | 33850 ft | 497 kts | 179° |
| 2026-04-22 02:42 | -2.69346 | 55.40688 | 33849 ft | 498 kts | 179° |
| 2026-04-22 02:42 | -2.72606 | 55.40813 | 33657 ft | 492 kts | 179° |
| 2026-04-22 02:43 | -2.76033 | 55.40943 | 32740 ft | 495 kts | 179° |
| 2026-04-22 02:43 | -2.79507 | 55.41075 | 31832 ft | 499 kts | 179° |
| 2026-04-22 02:43 | -2.83016 | 55.41209 | 30977 ft | 501 kts | 179° |
| 2026-04-22 02:43 | -2.86540 | 55.41343 | 30252 ft | 500 kts | 179° |
| 2026-04-22 02:44 | -2.90009 | 55.41476 | 29787 ft | 494 kts | 179° |
| 2026-04-22 02:44 | -2.93420 | 55.41606 | 29276 ft | 489 kts | 179° |
| 2026-04-22 02:44 | -2.96849 | 55.41737 | 28720 ft | 486 kts | 179° |
| 2026-04-22 02:44 | -3.00174 | 55.41864 | 28189 ft | 482 kts | 179° |
| 2026-04-22 02:45 | -3.03569 | 55.41993 | 27643 ft | 479 kts | 179° |
| 2026-04-22 02:45 | -3.06857 | 55.42118 | 27090 ft | 476 kts | 179° |
| 2026-04-22 02:45 | -3.10193 | 55.42245 | 26526 ft | 474 kts | 178° |
| 2026-04-22 02:45 | -3.13479 | 55.42371 | 25959 ft | 472 kts | 178° |
| 2026-04-22 02:46 | -3.16888 | 55.42501 | 25367 ft | 469 kts | 178° |
| 2026-04-22 02:46 | -3.20204 | 55.42627 | 24796 ft | 467 kts | 178° |
| 2026-04-22 02:46 | -3.23454 | 55.42751 | 24225 ft | 464 kts | 178° |
| 2026-04-22 02:46 | -3.26714 | 55.42875 | 23651 ft | 462 kts | 178° |
| 2026-04-22 02:47 | -3.29929 | 55.42998 | 23090 ft | 460 kts | 178° |
| 2026-04-22 02:47 | -3.33108 | 55.43119 | 22521 ft | 458 kts | 178° |
| 2026-04-22 02:47 | -3.36294 | 55.43240 | 21961 ft | 456 kts | 178° |
| 2026-04-22 02:47 | -3.39485 | 55.43362 | 21398 ft | 454 kts | 178° |
| 2026-04-22 02:48 | -3.42627 | 55.43482 | 20825 ft | 452 kts | 178° |
| 2026-04-22 02:48 | -3.45758 | 55.43601 | 20247 ft | 450 kts | 178° |
| 2026-04-22 02:48 | -3.48905 | 55.43721 | 19663 ft | 448 kts | 178° |
| 2026-04-22 02:48 | -3.52010 | 55.43840 | 19086 ft | 445 kts | 178° |
| 2026-04-22 02:49 | -3.55084 | 55.43957 | 18510 ft | 442 kts | 178° |
| 2026-04-22 02:49 | -3.58170 | 55.44075 | 17925 ft | 439 kts | 178° |
| 2026-04-22 02:49 | -3.61220 | 55.44191 | 17290 ft | 432 kts | 178° |
| 2026-04-22 02:49 | -3.64207 | 55.44305 | 16755 ft | 422 kts | 178° |
| 2026-04-22 02:50 | -3.67082 | 55.44414 | 16219 ft | 413 kts | 177° |
| 2026-04-22 02:50 | -3.69945 | 55.44524 | 15671 ft | 405 kts | 177° |
| 2026-04-22 02:50 | -3.72750 | 55.44631 | 15124 ft | 397 kts | 177° |
| 2026-04-22 02:50 | -3.75481 | 55.44735 | 14589 ft | 391 kts | 177° |
| 2026-04-22 02:51 | -3.78181 | 55.44838 | 14062 ft | 384 kts | 177° |
| 2026-04-22 02:51 | -3.80868 | 55.44941 | 13532 ft | 378 kts | 177° |
| 2026-04-22 02:51 | -3.83498 | 55.45041 | 13032 ft | 376 kts | 177° |
| 2026-04-22 02:51 | -3.86112 | 55.45141 | 12498 ft | 375 kts | 177° |
| 2026-04-22 02:52 | -3.88724 | 55.45241 | 11967 ft | 375 kts | 177° |
| 2026-04-22 02:52 | -3.91320 | 55.45340 | 11443 ft | 374 kts | 177° |
| 2026-04-22 02:52 | -3.93935 | 55.45440 | 10961 ft | 371 kts | 177° |
| 2026-04-22 02:52 | -3.96491 | 55.45538 | 10667 ft | 363 kts | 177° |
| 2026-04-22 02:53 | -3.98980 | 55.45633 | 10603 ft | 348 kts | 177° |
| 2026-04-22 02:53 | -4.01397 | 55.45725 | 10498 ft | 335 kts | 177° |
| 2026-04-22 02:53 | -4.03681 | 55.45812 | 10367 ft | 325 kts | 177° |
| 2026-04-22 02:53 | -4.05928 | 55.45898 | 10224 ft | 315 kts | 178° |
| 2026-04-22 02:54 | -4.08101 | 55.45981 | 10086 ft | 305 kts | 177° |
| 2026-04-22 02:54 | -4.10187 | 55.46061 | 9840 ft | 301 kts | 177° |
| 2026-04-22 02:54 | -4.12300 | 55.46142 | 9404 ft | 300 kts | 177° |
| 2026-04-22 02:54 | -4.14372 | 55.46221 | 9023 ft | 296 kts | 177° |
| 2026-04-22 02:55 | -4.16429 | 55.46299 | 8658 ft | 291 kts | 177° |
| 2026-04-22 02:55 | -4.18435 | 55.46367 | 8304 ft | 286 kts | 179° |
| 2026-04-22 02:55 | -4.20438 | 55.46360 | 7955 ft | 282 kts | 180° |
| 2026-04-22 02:55 | -4.22391 | 55.46344 | 7613 ft | 277 kts | 180° |
| 2026-04-22 02:56 | -4.24308 | 55.46337 | 7280 ft | 273 kts | 180° |
| 2026-04-22 02:56 | -4.26206 | 55.46334 | 6969 ft | 272 kts | 179° |
| 2026-04-22 02:56 | -4.28120 | 55.46332 | 6624 ft | 272 kts | 179° |
| 2026-04-22 02:56 | -4.30032 | 55.46330 | 6286 ft | 273 kts | 179° |
| 2026-04-22 02:57 | -4.31928 | 55.46328 | 5960 ft | 273 kts | 179° |
| 2026-04-22 02:57 | -4.33833 | 55.46326 | 5632 ft | 273 kts | 179° |
| 2026-04-22 02:57 | -4.35767 | 55.46325 | 5302 ft | 273 kts | 179° |
| 2026-04-22 02:57 | -4.37660 | 55.46323 | 4970 ft | 274 kts | 179° |
| 2026-04-22 02:58 | -4.39576 | 55.46321 | 4766 ft | 266 kts | 179° |
| 2026-04-22 02:58 | -4.41379 | 55.46319 | 4728 ft | 254 kts | 179° |
| 2026-04-22 02:58 | -4.43137 | 55.46318 | 4627 ft | 245 kts | 179° |
| 2026-04-22 02:58 | -4.44857 | 55.46318 | 4326 ft | 247 kts | 179° |
| 2026-04-22 02:59 | -4.46583 | 55.46318 | 3981 ft | 250 kts | 179° |
| 2026-04-22 02:59 | -4.48322 | 55.46318 | 3658 ft | 251 kts | 178° |
| 2026-04-22 02:59 | -4.50098 | 55.46318 | 3342 ft | 252 kts | 178° |
| 2026-04-22 02:59 | -4.51851 | 55.46318 | 3018 ft | 251 kts | 179° |
| 2026-04-22 03:00 | -4.53598 | 55.46328 | 2718 ft | 248 kts | 178° |
| 2026-04-22 03:00 | -4.55297 | 55.46343 | 2425 ft | 244 kts | 178° |
| 2026-04-22 03:00 | -4.56968 | 55.46355 | 2211 ft | 225 kts | 178° |
| 2026-04-22 03:00 | -4.58477 | 55.46359 | 1992 ft | 211 kts | 178° |
| 2026-04-22 03:01 | -4.59915 | 55.46354 | 1722 ft | 200 kts | 178° |
| 2026-04-22 03:01 | -4.61294 | 55.46399 | 1473 ft | 193 kts | 172° |
| 2026-04-22 03:01 | -4.62572 | 55.46690 | 1137 ft | 185 kts | 156° |
| 2026-04-22 03:01 | -4.63622 | 55.47287 | 945 ft | 164 kts | 141° |
| 2026-04-22 03:02 | -4.64442 | 55.48042 | 720 ft | 157 kts | 129° |
| 2026-04-22 03:02 | -4.65109 | 55.48885 | 526 ft | 153 kts | 125° |
| 2026-04-22 03:02 | -4.65731 | 55.49761 | 350 ft | 152 kts | 123° |
| 2026-04-22 03:02 | -4.66335 | 55.50631 | 166 ft | 153 kts | 124° |
| 2026-04-22 03:03 | -4.66949 | 55.51497 | 44 ft | 144 kts | 124° |
| 2026-04-22 03:03 | -4.67468 | 55.52240 | 22 ft | 113 kts | 125° |
| 2026-04-22 03:03 | -4.67810 | 55.52728 | 21 ft | 55 kts | 124° |
| 2026-04-22 03:03 | -4.67999 | 55.52993 | 22 ft | 26 kts | 127° |
| 2026-04-22 03:04 | -4.68092 | 55.53120 | 22 ft | 17 kts | 132° |
| 2026-04-22 03:04 | -4.68202 | 55.53166 | 22 ft | 16 kts | 167° |
| 2026-04-22 03:04 | -4.68267 | 55.53193 | 22 ft | 6 kts | 126° |
| 2026-04-22 03:04 | -4.68268 | 55.53231 | 22 ft | 5 kts | 56° |
| 2026-04-22 03:05 | -4.68224 | 55.53257 | 22 ft | 9 kts | 10° |
| 2026-04-22 03:05 | -4.68154 | 55.53210 | 22 ft | 17 kts | 306° |
| 2026-04-22 03:05 | -4.68057 | 55.53075 | 22 ft | 30 kts | 304° |
| 2026-04-22 03:05 | -4.67941 | 55.52907 | 22 ft | 27 kts | 305° |
| 2026-04-22 03:06 | -4.67832 | 55.52753 | 21 ft | 26 kts | 305° |
| 2026-04-22 03:06 | -4.67726 | 55.52598 | 21 ft | 25 kts | 303° |
| 2026-04-22 03:06 | -4.67628 | 55.52458 | 21 ft | 24 kts | 305° |
| 2026-04-22 03:06 | -4.67530 | 55.52320 | 22 ft | 23 kts | 304° |
| 2026-04-22 03:07 | -4.67430 | 55.52180 | 23 ft | 26 kts | 306° |
| 2026-04-22 03:07 | -4.67314 | 55.52016 | 24 ft | 30 kts | 305° |
| 2026-04-22 03:07 | -4.67187 | 55.51835 | 27 ft | 32 kts | 304° |
| 2026-04-22 03:07 | -4.67058 | 55.51652 | 27 ft | 30 kts | 305° |
| 2026-04-22 03:08 | -4.66932 | 55.51472 | 27 ft | 26 kts | 304° |
| 2026-04-22 03:08 | -4.66900 | 55.51381 | 27 ft | 12 kts | 239° |
| 2026-04-22 03:08 | -4.66974 | 55.51322 | 27 ft | 9 kts | 217° |
| 2026-04-22 03:08 | -4.67028 | 55.51277 | 27 ft | 7 kts | 218° |
| 2026-04-22 03:09 | -4.67066 | 55.51250 | 27 ft | 0 kts | 215° |
| 2026-04-22 03:09 | -4.67068 | 55.51248 | 27 ft | 0 kts | 214° |